createdAt,value
2018-03-22T00:00:58.129Z,4.39
2018-03-22T00:01:58.098Z,4.34
2018-03-22T00:02:57.846Z,4.42
2018-03-22T00:03:58.340Z,4.37
2018-03-22T00:04:58.291Z,4.39
2018-03-22T00:05:58.015Z,4.36
2018-03-22T00:06:57.989Z,4.34
2018-03-22T00:07:57.960Z,4.32
2018-03-22T00:08:57.976Z,4.36
2018-03-22T00:09:58.187Z,4.34
2018-03-22T00:10:58.174Z,4.39
2018-03-22T00:11:57.608Z,4.36
2018-03-22T00:12:58.119Z,4.33
2018-03-22T00:13:57.845Z,4.42
2018-03-22T00:14:58.073Z,4.32
2018-03-22T00:15:57.517Z,4.37
2018-03-22T00:16:57.768Z,4.29
2018-03-22T00:17:57.524Z,4.39
2018-03-22T00:18:57.996Z,4.34
2018-03-22T00:19:57.710Z,4.43
2018-03-22T00:20:57.418Z,4.34
2018-03-22T00:21:57.996Z,4.36
2018-03-22T00:22:57.659Z,4.34
2018-03-22T00:23:57.362Z,4.34
2018-03-22T00:24:57.918Z,4.4
2018-03-22T00:25:57.682Z,4.4
2018-03-22T00:26:57.550Z,4.44
2018-03-22T00:27:57.539Z,4.44
2018-03-22T00:28:57.857Z,4.43
2018-03-22T00:29:57.753Z,4.36
2018-03-22T00:30:57.511Z,4.36
2018-03-22T00:31:57.595Z,4.42
2018-03-22T00:32:57.163Z,4.37
2018-03-22T00:33:57.478Z,4.46
2018-03-22T00:34:57.655Z,4.46
2018-03-22T00:35:57.210Z,4.37
2018-03-22T00:36:57.074Z,4.39
2018-03-22T00:37:57.312Z,4.36
2018-03-22T00:38:57.589Z,4.4
2018-03-22T00:39:57.292Z,4.37
2018-03-22T00:40:57.295Z,4.36
2018-03-22T00:41:57.582Z,4.36
2018-03-22T00:42:57.484Z,4.4
2018-03-22T00:43:57.440Z,4.36
2018-03-22T00:44:56.924Z,4.44
2018-03-22T00:45:57.149Z,4.34
2018-03-22T00:46:56.853Z,4.4
2018-03-22T00:47:57.420Z,4.39
2018-03-22T00:48:57.079Z,4.42
2018-03-22T00:49:57.048Z,4.42
2018-03-22T00:50:57.088Z,4.46
2018-03-22T00:51:57.273Z,4.42
2018-03-22T00:52:57.256Z,4.36
2018-03-22T00:53:57.230Z,4.34
2018-03-22T00:54:56.946Z,4.37
2018-03-22T00:55:57.198Z,4.37
2018-03-22T00:56:57.171Z,4.4
2018-03-22T00:57:57.141Z,4.37
2018-03-22T00:58:57.133Z,4.42
2018-03-22T00:59:56.840Z,4.43
2018-03-22T01:00:56.817Z,4.46
2018-03-22T01:01:57.066Z,4.4
2018-03-22T01:02:56.507Z,4.39
2018-03-22T01:03:56.757Z,4.4
2018-03-22T01:04:56.748Z,4.44
2018-03-22T01:05:56.965Z,4.46
2018-03-22T01:06:56.697Z,4.4
2018-03-22T01:07:56.997Z,4.43
2018-03-22T01:08:56.945Z,4.46
2018-03-22T01:09:56.630Z,4.43
2018-03-22T01:10:56.345Z,4.39
2018-03-22T01:11:56.576Z,4.39
2018-03-22T01:12:56.661Z,4.42
2018-03-22T01:13:56.544Z,4.42
2018-03-22T01:14:56.515Z,4.43
2018-03-22T01:15:56.221Z,4.4
2018-03-22T01:16:56.468Z,4.36
2018-03-22T01:17:56.719Z,4.39
2018-03-22T01:18:56.427Z,4.44
2018-03-22T01:19:56.735Z,4.4
2018-03-22T01:20:56.443Z,4.4
2018-03-22T01:21:56.185Z,4.44
2018-03-22T01:22:56.342Z,4.42
2018-03-22T01:23:56.589Z,4.44
2018-03-22T01:24:56.045Z,4.47
2018-03-22T01:25:56.013Z,4.5
2018-03-22T01:26:56.253Z,4.46
2018-03-22T01:27:56.239Z,4.42
2018-03-22T01:28:55.941Z,4.47
2018-03-22T01:29:56.196Z,4.42
2018-03-22T01:30:56.453Z,4.42
2018-03-22T01:31:56.484Z,4.42
2018-03-22T01:32:56.418Z,4.4
2018-03-22T01:33:56.101Z,4.42
2018-03-22T01:34:55.832Z,4.43
2018-03-22T01:35:56.092Z,4.5
2018-03-22T01:36:56.515Z,4.37
2018-03-22T01:37:56.103Z,4.42
2018-03-22T01:38:55.925Z,4.43
2018-03-22T01:39:56.240Z,4.42
2018-03-22T01:40:55.946Z,4.44
2018-03-22T01:41:55.935Z,4.4
2018-03-22T01:42:55.650Z,4.43
2018-03-22T01:43:55.904Z,4.39
2018-03-22T01:44:55.930Z,4.4
2018-03-22T01:45:55.869Z,4.37
2018-03-22T01:46:56.093Z,4.42
2018-03-22T01:47:55.794Z,4.44
2018-03-22T01:48:55.868Z,4.42
2018-03-22T01:49:55.818Z,4.39
2018-03-22T01:50:55.741Z,4.5
2018-03-22T01:51:56.014Z,4.43
2018-03-22T01:52:55.973Z,4.5
2018-03-22T01:53:55.415Z,4.5
2018-03-22T01:54:55.910Z,4.5
2018-03-22T01:55:56.147Z,4.52
2018-03-22T01:56:56.269Z,4.55
2018-03-22T01:57:55.309Z,4.52
2018-03-22T01:58:55.652Z,4.58
2018-03-22T01:59:55.384Z,4.54
2018-03-22T02:00:55.963Z,4.59
2018-03-22T02:01:55.235Z,4.54
2018-03-22T02:02:55.745Z,4.61
2018-03-22T02:03:55.550Z,4.61
2018-03-22T02:04:55.520Z,4.62
2018-03-22T02:05:55.410Z,4.67
2018-03-22T02:06:55.653Z,4.72
2018-03-22T02:07:55.938Z,4.61
2018-03-22T02:08:55.352Z,4.72
2018-03-22T02:09:55.458Z,4.64
2018-03-22T02:10:55.580Z,4.64
2018-03-22T02:11:55.405Z,4.7
2018-03-22T02:12:55.348Z,4.72
2018-03-22T02:13:54.963Z,4.76
2018-03-22T02:14:55.509Z,4.64
2018-03-22T02:15:55.454Z,4.72
2018-03-22T02:16:54.898Z,4.67
2018-03-22T02:17:55.153Z,4.67
2018-03-22T02:18:55.384Z,4.75
2018-03-22T02:19:55.096Z,4.73
2018-03-22T02:20:55.173Z,4.69
2018-03-22T02:21:55.351Z,4.7
2018-03-22T02:22:55.431Z,4.62
2018-03-22T02:23:55.053Z,4.73
2018-03-22T02:24:55.252Z,4.69
2018-03-22T02:25:55.230Z,4.64
2018-03-22T02:26:55.221Z,4.67
2018-03-22T02:27:54.662Z,4.72
2018-03-22T02:28:54.711Z,4.69
2018-03-22T02:29:54.615Z,4.73
2018-03-22T02:30:55.224Z,4.72
2018-03-22T02:31:54.847Z,4.75
2018-03-22T02:32:54.907Z,4.77
2018-03-22T02:33:55.092Z,4.62
2018-03-22T02:34:54.778Z,4.8
2018-03-22T02:35:54.767Z,4.69
2018-03-22T02:36:54.757Z,4.77
2018-03-22T02:37:54.717Z,4.83
2018-03-22T02:38:54.429Z,4.83
2018-03-22T02:39:54.679Z,4.88
2018-03-22T02:40:54.996Z,4.77
2018-03-22T02:41:54.627Z,4.75
2018-03-22T02:42:54.672Z,4.77
2018-03-22T02:43:54.591Z,4.8
2018-03-22T02:44:54.580Z,4.84
2018-03-22T02:45:54.294Z,4.7
2018-03-22T02:46:54.540Z,4.65
2018-03-22T02:47:54.531Z,4.75
2018-03-22T02:48:54.216Z,4.76
2018-03-22T02:49:54.346Z,4.7
2018-03-22T02:50:54.448Z,4.7
2018-03-22T02:51:54.688Z,4.77
2018-03-22T02:52:54.415Z,4.69
2018-03-22T02:53:54.651Z,4.73
2018-03-22T02:54:54.353Z,4.79
2018-03-22T02:55:54.708Z,4.67
2018-03-22T02:56:54.467Z,4.64
2018-03-22T02:57:54.297Z,4.76
2018-03-22T02:58:54.602Z,4.76
2018-03-22T02:59:54.518Z,4.75
2018-03-22T03:00:54.504Z,4.79
2018-03-22T03:01:54.491Z,4.69
2018-03-22T03:02:54.203Z,4.67
2018-03-22T03:03:54.162Z,4.79
2018-03-22T03:04:54.416Z,4.77
2018-03-22T03:05:54.489Z,4.59
2018-03-22T03:06:53.833Z,4.67
2018-03-22T03:07:54.475Z,4.75
2018-03-22T03:08:54.345Z,4.77
2018-03-22T03:09:54.287Z,4.67
2018-03-22T03:10:53.812Z,4.79
2018-03-22T03:11:54.010Z,4.67
2018-03-22T03:12:54.331Z,4.72
2018-03-22T03:13:53.955Z,4.69
2018-03-22T03:14:53.926Z,4.76
2018-03-22T03:15:54.238Z,4.72
2018-03-22T03:16:54.142Z,4.72
2018-03-22T03:17:54.128Z,4.7
2018-03-22T03:18:54.105Z,4.72
2018-03-22T03:19:53.815Z,4.79
2018-03-22T03:20:53.636Z,4.76
2018-03-22T03:21:53.762Z,4.67
2018-03-22T03:22:53.495Z,4.67
2018-03-22T03:23:53.998Z,4.77
2018-03-22T03:24:53.443Z,4.77
2018-03-22T03:25:53.683Z,4.72
2018-03-22T03:26:53.768Z,4.76
2018-03-22T03:27:53.930Z,4.83
2018-03-22T03:28:53.900Z,4.69
2018-03-22T03:29:53.406Z,4.75
2018-03-22T03:30:53.436Z,4.79
2018-03-22T03:31:53.391Z,4.77
2018-03-22T03:32:53.821Z,4.7
2018-03-22T03:33:53.633Z,4.73
2018-03-22T03:34:53.524Z,4.77
2018-03-22T03:35:53.484Z,4.79
2018-03-22T03:36:53.709Z,4.73
2018-03-22T03:37:53.152Z,4.79
2018-03-22T03:38:53.775Z,4.79
2018-03-22T03:39:53.713Z,4.7
2018-03-22T03:40:53.355Z,4.77
2018-03-22T03:41:53.333Z,4.77
2018-03-22T03:42:53.609Z,4.8
2018-03-22T03:43:53.034Z,4.8
2018-03-22T03:44:53.535Z,4.83
2018-03-22T03:45:53.516Z,4.76
2018-03-22T03:46:53.654Z,4.8
2018-03-22T03:47:53.456Z,4.77
2018-03-22T03:48:53.252Z,4.79
2018-03-22T03:49:53.459Z,4.77
2018-03-22T03:50:52.917Z,4.72
2018-03-22T03:51:53.440Z,4.79
2018-03-22T03:52:53.133Z,4.75
2018-03-22T03:53:53.101Z,4.73
2018-03-22T03:54:53.388Z,4.61
2018-03-22T03:55:53.662Z,4.73
2018-03-22T03:56:53.104Z,4.72
2018-03-22T03:57:53.371Z,4.69
2018-03-22T03:58:52.704Z,4.73
2018-03-22T03:59:52.998Z,4.67
2018-03-22T04:00:53.141Z,4.72
2018-03-22T04:01:53.028Z,4.7
2018-03-22T04:02:52.661Z,4.67
2018-03-22T04:03:53.131Z,4.57
2018-03-22T04:04:53.219Z,4.69
2018-03-22T04:05:52.555Z,4.7
2018-03-22T04:06:52.867Z,4.67
2018-03-22T04:07:52.908Z,4.72
2018-03-22T04:08:53.043Z,4.72
2018-03-22T04:09:52.776Z,4.72
2018-03-22T04:10:52.823Z,4.65
2018-03-22T04:11:52.922Z,4.65
2018-03-22T04:12:52.585Z,4.69
2018-03-22T04:13:52.738Z,4.62
2018-03-22T04:14:52.633Z,4.62
2018-03-22T04:15:52.619Z,4.62
2018-03-22T04:16:52.586Z,4.65
2018-03-22T04:17:52.298Z,4.67
2018-03-22T04:18:52.817Z,4.65
2018-03-22T04:19:53.062Z,4.65
2018-03-22T04:20:52.508Z,4.67
2018-03-22T04:21:52.883Z,4.65
2018-03-22T04:22:52.657Z,4.61
2018-03-22T04:23:52.875Z,4.65
2018-03-22T04:24:52.691Z,4.59
2018-03-22T04:25:52.471Z,4.67
2018-03-22T04:26:52.670Z,4.59
2018-03-22T04:27:52.459Z,4.59
2018-03-22T04:28:52.664Z,4.57
2018-03-22T04:29:52.105Z,4.58
2018-03-22T04:30:52.369Z,4.55
2018-03-22T04:31:52.098Z,4.52
2018-03-22T04:32:52.518Z,4.57
2018-03-22T04:33:52.228Z,4.57
2018-03-22T04:34:52.203Z,4.57
2018-03-22T04:35:51.979Z,4.51
2018-03-22T04:36:52.157Z,4.54
2018-03-22T04:37:52.228Z,4.54
2018-03-22T04:38:52.244Z,4.54
2018-03-22T04:39:52.133Z,4.44
2018-03-22T04:40:52.342Z,4.51
2018-03-22T04:41:51.792Z,4.47
2018-03-22T04:42:52.300Z,4.44
2018-03-22T04:43:52.381Z,4.42
2018-03-22T04:44:51.984Z,4.42
2018-03-22T04:45:51.988Z,4.43
2018-03-22T04:46:52.452Z,4.33
2018-03-22T04:47:51.922Z,4.37
2018-03-22T04:48:52.066Z,4.26
2018-03-22T04:49:52.211Z,4.26
2018-03-22T04:50:51.853Z,4.22
2018-03-22T04:51:51.593Z,4.26
2018-03-22T04:52:51.562Z,4.21
2018-03-22T04:53:51.869Z,4.22
2018-03-22T04:54:52.030Z,4.14
2018-03-22T04:55:51.476Z,4.15
2018-03-22T04:56:51.447Z,4.14
2018-03-22T04:57:51.664Z,4.15
2018-03-22T04:58:52.142Z,4.15
2018-03-22T04:59:51.796Z,4.08
2018-03-22T05:00:51.537Z,4.1
2018-03-22T05:01:51.799Z,4.08
2018-03-22T05:02:51.687Z,4.06
2018-03-22T05:03:52.081Z,4.1
2018-03-22T05:04:52.038Z,4
2018-03-22T05:05:51.954Z,4.08
2018-03-22T05:06:51.551Z,4.04
2018-03-22T05:07:51.893Z,4.07
2018-03-22T05:08:51.557Z,4.01
2018-03-22T05:09:51.372Z,4.06
2018-03-22T05:10:51.645Z,3.98
2018-03-22T05:11:51.556Z,3.98
2018-03-22T05:12:51.835Z,4.03
2018-03-22T05:13:51.571Z,4.03
2018-03-22T05:14:51.513Z,4
2018-03-22T05:15:51.707Z,3.96
2018-03-22T05:16:51.428Z,3.94
2018-03-22T05:17:51.342Z,3.9
2018-03-22T05:18:51.743Z,3.97
2018-03-22T05:19:51.750Z,3.9
2018-03-22T05:20:51.340Z,3.86
2018-03-22T05:21:51.541Z,3.94
2018-03-22T05:22:51.609Z,3.96
2018-03-22T05:23:51.000Z,3.88
2018-03-22T05:24:51.241Z,3.88
2018-03-22T05:25:51.418Z,3.85
2018-03-22T05:26:51.520Z,3.83
2018-03-22T05:27:51.462Z,3.76
2018-03-22T05:28:50.813Z,3.76
2018-03-22T05:29:51.213Z,3.86
2018-03-22T05:30:51.338Z,3.89
2018-03-22T05:31:51.283Z,3.85
2018-03-22T05:32:51.009Z,3.83
2018-03-22T05:33:51.312Z,3.82
2018-03-22T05:34:51.284Z,3.75
2018-03-22T05:35:51.233Z,3.86
2018-03-22T05:36:51.045Z,3.8
2018-03-22T05:37:50.910Z,3.8
2018-03-22T05:38:51.196Z,3.79
2018-03-22T05:39:50.860Z,3.78
2018-03-22T05:40:50.717Z,3.79
2018-03-22T05:41:51.053Z,3.79
2018-03-22T05:42:50.910Z,3.79
2018-03-22T05:43:50.528Z,3.8
2018-03-22T05:44:50.717Z,3.79
2018-03-22T05:45:51.033Z,3.72
2018-03-22T05:46:50.615Z,3.76
2018-03-22T05:47:50.840Z,3.79
2018-03-22T05:48:50.560Z,3.75
2018-03-22T05:49:50.528Z,3.8
2018-03-22T05:50:50.779Z,3.76
2018-03-22T05:51:50.754Z,3.85
2018-03-22T05:52:50.776Z,3.72
2018-03-22T05:53:50.173Z,3.76
2018-03-22T05:54:50.416Z,3.76
2018-03-22T05:55:51.001Z,3.85
2018-03-22T05:56:50.372Z,3.78
2018-03-22T05:57:50.353Z,3.79
2018-03-22T05:58:50.594Z,3.82
2018-03-22T05:59:50.311Z,3.8
2018-03-22T06:00:50.280Z,3.76
2018-03-22T06:01:50.265Z,3.78
2018-03-22T06:02:50.504Z,3.8
2018-03-22T06:03:50.211Z,3.85
2018-03-22T06:04:50.462Z,3.76
2018-03-22T06:05:50.437Z,3.79
2018-03-22T06:06:50.417Z,3.72
2018-03-22T06:07:50.133Z,3.76
2018-03-22T06:08:50.210Z,3.79
2018-03-22T06:09:50.081Z,3.72
2018-03-22T06:10:50.323Z,3.72
2018-03-22T06:11:50.034Z,3.72
2018-03-22T06:12:49.749Z,3.76
2018-03-22T06:13:49.725Z,3.64
2018-03-22T06:14:49.964Z,3.76
2018-03-22T06:15:49.952Z,3.64
2018-03-22T06:16:49.927Z,3.78
2018-03-22T06:17:49.635Z,3.76
2018-03-22T06:18:49.891Z,3.75
2018-03-22T06:19:49.850Z,3.75
2018-03-22T06:20:49.839Z,3.67
2018-03-22T06:21:49.546Z,3.7
2018-03-22T06:22:49.790Z,3.72
2018-03-22T06:23:49.764Z,3.71
2018-03-22T06:24:50.010Z,3.75
2018-03-22T06:25:50.019Z,3.76
2018-03-22T06:26:49.695Z,3.76
2018-03-22T06:27:49.945Z,3.76
2018-03-22T06:28:49.387Z,3.76
2018-03-22T06:29:49.630Z,3.79
2018-03-22T06:30:49.611Z,3.75
2018-03-22T06:31:49.583Z,3.79
2018-03-22T06:32:49.992Z,3.86
2018-03-22T06:33:49.542Z,3.76
2018-03-22T06:34:49.517Z,3.85
2018-03-22T06:35:49.501Z,3.83
2018-03-22T06:36:49.744Z,3.89
2018-03-22T06:37:49.449Z,3.89
2018-03-22T06:38:49.162Z,3.89
2018-03-22T06:39:49.661Z,3.92
2018-03-22T06:40:49.384Z,3.89
2018-03-22T06:41:49.361Z,3.88
2018-03-22T06:42:49.337Z,3.89
2018-03-22T06:43:49.313Z,3.85
2018-03-22T06:44:49.298Z,3.92
2018-03-22T06:45:49.003Z,3.89
2018-03-22T06:46:49.248Z,3.9
2018-03-22T06:47:49.220Z,3.89
2018-03-22T06:48:49.204Z,3.88
2018-03-22T06:49:48.915Z,3.9
2018-03-22T06:50:49.159Z,3.96
2018-03-22T06:51:48.869Z,3.89
2018-03-22T06:52:49.113Z,3.86
2018-03-22T06:53:49.356Z,3.88
2018-03-22T06:54:49.061Z,3.88
2018-03-22T06:55:49.310Z,3.89
2018-03-22T06:56:49.026Z,3.88
2018-03-22T06:57:48.996Z,3.89
2018-03-22T06:58:48.711Z,3.88
2018-03-22T06:59:49.222Z,3.86
2018-03-22T07:00:48.938Z,3.88
2018-03-22T07:01:48.673Z,3.86
2018-03-22T07:02:49.157Z,3.79
2018-03-22T07:03:48.871Z,3.83
2018-03-22T07:04:49.109Z,3.79
2018-03-22T07:05:48.561Z,3.86
2018-03-22T07:06:48.801Z,3.86
2018-03-22T07:07:48.782Z,3.83
2018-03-22T07:08:48.755Z,3.89
2018-03-22T07:09:48.474Z,3.86
2018-03-22T07:10:48.987Z,3.86
2018-03-22T07:11:48.949Z,3.88
2018-03-22T07:12:48.676Z,3.86
2018-03-22T07:13:48.652Z,3.89
2018-03-22T07:14:48.627Z,3.86
2018-03-22T07:15:48.607Z,3.83
2018-03-22T07:16:48.840Z,3.79
2018-03-22T07:17:48.819Z,3.89
2018-03-22T07:18:48.794Z,3.83
2018-03-22T07:19:48.789Z,3.88
2018-03-22T07:20:48.750Z,3.72
2018-03-22T07:21:48.745Z,3.79
2018-03-22T07:22:48.447Z,3.76
2018-03-22T07:23:48.415Z,3.8
2018-03-22T07:24:48.396Z,3.82
2018-03-22T07:25:48.633Z,3.8
2018-03-22T07:26:48.625Z,3.76
2018-03-22T07:27:48.328Z,3.76
2018-03-22T07:28:48.302Z,3.76
2018-03-22T07:29:48.284Z,3.72
2018-03-22T07:30:48.531Z,3.71
2018-03-22T07:31:48.503Z,3.7
2018-03-22T07:32:48.209Z,3.71
2018-03-22T07:33:48.192Z,3.72
2018-03-22T07:34:47.903Z,3.7
2018-03-22T07:35:48.157Z,3.72
2018-03-22T07:36:48.198Z,3.72
2018-03-22T07:37:48.108Z,3.7
2018-03-22T07:38:48.075Z,3.72
2018-03-22T07:39:47.799Z,3.67
2018-03-22T07:40:47.843Z,3.75
2018-03-22T07:41:47.770Z,3.75
2018-03-22T07:42:48.267Z,3.75
2018-03-22T07:43:47.988Z,3.65
2018-03-22T07:44:48.209Z,3.64
2018-03-22T07:45:48.184Z,3.71
2018-03-22T07:46:47.899Z,3.61
2018-03-22T07:47:47.614Z,3.64
2018-03-22T07:48:48.121Z,3.76
2018-03-22T07:49:47.564Z,3.62
2018-03-22T07:50:47.810Z,3.65
2018-03-22T07:51:47.794Z,3.7
2018-03-22T07:52:48.091Z,3.72
2018-03-22T07:53:48.014Z,3.76
2018-03-22T07:54:47.988Z,3.67
2018-03-22T07:55:47.703Z,3.68
2018-03-22T07:56:47.410Z,3.76
2018-03-22T07:57:47.919Z,3.72
2018-03-22T07:58:47.626Z,3.67
2018-03-22T07:59:47.877Z,3.7
2018-03-22T08:00:47.873Z,3.72
2018-03-22T08:01:47.849Z,3.76
2018-03-22T08:02:47.811Z,3.72
2018-03-22T08:03:47.787Z,3.75
2018-03-22T08:04:47.228Z,3.75
2018-03-22T08:05:47.569Z,3.83
2018-03-22T08:06:47.446Z,3.82
2018-03-22T08:07:47.690Z,3.71
2018-03-22T08:08:47.404Z,3.76
2018-03-22T08:09:47.113Z,3.76
2018-03-22T08:10:47.629Z,3.83
2018-03-22T08:11:47.331Z,3.82
2018-03-22T08:12:47.047Z,3.83
2018-03-22T08:13:47.298Z,3.8
2018-03-22T08:14:47.268Z,3.83
2018-03-22T08:15:47.250Z,3.85
2018-03-22T08:16:47.487Z,3.83
2018-03-22T08:17:47.474Z,3.9
2018-03-22T08:18:47.446Z,3.86
2018-03-22T08:19:47.154Z,3.96
2018-03-22T08:20:47.140Z,3.98
2018-03-22T08:21:47.115Z,3.97
2018-03-22T08:22:47.361Z,3.86
2018-03-22T08:23:47.344Z,3.92
2018-03-22T08:24:46.790Z,3.89
2018-03-22T08:25:47.298Z,3.92
2018-03-22T08:26:46.737Z,3.82
2018-03-22T08:27:47.241Z,3.86
2018-03-22T08:28:47.010Z,3.78
2018-03-22T08:29:46.937Z,3.76
2018-03-22T08:30:46.911Z,3.85
2018-03-22T08:31:47.159Z,3.83
2018-03-22T08:32:46.870Z,3.85
2018-03-22T08:33:46.843Z,3.88
2018-03-22T08:34:46.816Z,3.88
2018-03-22T08:35:46.803Z,3.92
2018-03-22T08:36:46.774Z,3.94
2018-03-22T08:37:46.754Z,3.82
2018-03-22T08:38:47.001Z,3.9
2018-03-22T08:39:46.978Z,3.98
2018-03-22T08:40:46.946Z,3.96
2018-03-22T08:41:46.672Z,3.98
2018-03-22T08:42:46.639Z,3.98
2018-03-22T08:43:46.613Z,4
2018-03-22T08:44:46.870Z,3.97
2018-03-22T08:45:46.311Z,4
2018-03-22T08:46:46.814Z,4.03
2018-03-22T08:47:46.799Z,4
2018-03-22T08:48:46.518Z,4.01
2018-03-22T08:49:46.485Z,4.04
2018-03-22T08:50:46.725Z,4.07
2018-03-22T08:51:46.440Z,4.04
2018-03-22T08:52:46.683Z,4.03
2018-03-22T08:53:46.400Z,4.01
2018-03-22T08:54:46.699Z,4.01
2018-03-22T08:55:46.351Z,4.08
2018-03-22T08:56:46.327Z,4.07
2018-03-22T08:57:46.304Z,4.07
2018-03-22T08:58:46.019Z,4.01
2018-03-22T08:59:46.002Z,4.16
2018-03-22T09:00:45.979Z,4.07
2018-03-22T09:01:46.422Z,4.22
2018-03-22T09:02:46.194Z,4.16
2018-03-22T09:03:45.907Z,4.1
2018-03-22T09:04:45.884Z,4.06
2018-03-22T09:05:46.126Z,4.19
2018-03-22T09:06:46.104Z,4.26
2018-03-22T09:07:45.821Z,4.26
2018-03-22T09:08:46.069Z,4.29
2018-03-22T09:09:45.777Z,4.21
2018-03-22T09:10:46.292Z,4.28
2018-03-22T09:11:45.995Z,4.25
2018-03-22T09:12:45.972Z,4.33
2018-03-22T09:13:46.226Z,4.33
2018-03-22T09:14:45.946Z,4.28
2018-03-22T09:15:46.173Z,4.33
2018-03-22T09:16:45.885Z,4.4
2018-03-22T09:17:45.864Z,4.32
2018-03-22T09:18:45.838Z,4.42
2018-03-22T09:19:46.082Z,4.46
2018-03-22T09:20:45.530Z,4.44
2018-03-22T09:21:46.043Z,4.42
2018-03-22T09:22:45.778Z,4.46
2018-03-22T09:23:45.749Z,4.44
2018-03-22T09:24:45.712Z,4.47
2018-03-22T09:25:45.955Z,4.43
2018-03-22T09:26:45.938Z,4.5
2018-03-22T09:27:45.640Z,4.5
2018-03-22T09:28:45.901Z,4.51
2018-03-22T09:29:45.618Z,4.58
2018-03-22T09:30:45.577Z,4.62
2018-03-22T09:31:45.552Z,4.62
2018-03-22T09:32:45.550Z,4.67
2018-03-22T09:33:45.514Z,4.62
2018-03-22T09:34:45.224Z,4.65
2018-03-22T09:35:45.472Z,4.65
2018-03-22T09:36:45.448Z,4.67
2018-03-22T09:37:45.431Z,4.67
2018-03-22T09:38:45.415Z,4.72
2018-03-22T09:39:45.411Z,4.73
2018-03-22T09:40:45.357Z,4.7
2018-03-22T09:41:45.079Z,4.69
2018-03-22T09:42:45.365Z,4.73
2018-03-22T09:43:45.606Z,4.69
2018-03-22T09:44:45.272Z,4.77
2018-03-22T09:45:45.007Z,4.76
2018-03-22T09:46:44.964Z,4.8
2018-03-22T09:47:44.939Z,4.79
2018-03-22T09:48:44.920Z,4.79
2018-03-22T09:49:45.172Z,4.92
2018-03-22T09:50:45.403Z,4.8
2018-03-22T09:51:45.403Z,4.92
2018-03-22T09:52:45.107Z,4.84
2018-03-22T09:53:45.092Z,4.95
2018-03-22T09:54:44.789Z,4.91
2018-03-22T09:55:45.032Z,4.92
2018-03-22T09:56:45.226Z,4.96
2018-03-22T09:57:44.745Z,4.96
2018-03-22T09:58:44.975Z,4.91
2018-03-22T09:59:45.213Z,4.94
2018-03-22T10:00:44.932Z,4.96
2018-03-22T10:01:44.913Z,4.99
2018-03-22T10:02:45.205Z,5.05
2018-03-22T10:03:44.877Z,5.02
2018-03-22T10:04:45.120Z,5.05
2018-03-22T10:05:44.818Z,5.07
2018-03-22T10:06:45.017Z,5.05
2018-03-22T10:07:45.097Z,5.04
2018-03-22T10:08:45.164Z,5.12
2018-03-22T10:09:44.805Z,5.05
2018-03-22T10:10:44.515Z,5.1
2018-03-22T10:11:44.694Z,5.16
2018-03-22T10:12:44.497Z,5.2
2018-03-22T10:13:44.655Z,5.14
2018-03-22T10:14:44.704Z,5.16
2018-03-22T10:15:44.874Z,5.17
2018-03-22T10:16:44.316Z,5.19
2018-03-22T10:17:44.828Z,5.17
2018-03-22T10:18:44.581Z,5.14
2018-03-22T10:19:44.518Z,5.16
2018-03-22T10:20:44.495Z,5.19
2018-03-22T10:21:44.276Z,5.14
2018-03-22T10:22:44.504Z,5.16
2018-03-22T10:23:44.710Z,5.14
2018-03-22T10:24:44.410Z,5.13
2018-03-22T10:25:44.403Z,5.22
2018-03-22T10:26:44.644Z,5.27
2018-03-22T10:27:44.352Z,5.27
2018-03-22T10:28:44.452Z,5.31
2018-03-22T10:29:44.591Z,5.28
2018-03-22T10:30:44.598Z,5.3
2018-03-22T10:31:44.265Z,5.3
2018-03-22T10:32:44.522Z,5.37
2018-03-22T10:33:43.994Z,5.31
2018-03-22T10:34:44.530Z,5.31
2018-03-22T10:35:44.493Z,5.27
2018-03-22T10:36:44.462Z,5.28
2018-03-22T10:37:44.461Z,5.32
2018-03-22T10:38:44.145Z,5.49
2018-03-22T10:39:44.363Z,5.46
2018-03-22T10:40:44.077Z,5.49
2018-03-22T10:41:44.319Z,5.46
2018-03-22T10:42:44.323Z,5.48
2018-03-22T10:43:44.283Z,5.48
2018-03-22T10:44:44.072Z,5.45
2018-03-22T10:45:43.969Z,5.49
2018-03-22T10:46:43.952Z,5.38
2018-03-22T10:47:44.237Z,5.48
2018-03-22T10:48:44.236Z,5.49
2018-03-22T10:49:44.156Z,5.57
2018-03-22T10:50:44.192Z,5.6
2018-03-22T10:51:43.589Z,5.55
2018-03-22T10:52:43.653Z,5.6
2018-03-22T10:53:43.538Z,5.63
2018-03-22T10:54:43.784Z,5.57
2018-03-22T10:55:43.767Z,5.73
2018-03-22T10:56:44.007Z,5.63
2018-03-22T10:57:43.723Z,5.77
2018-03-22T10:58:43.705Z,5.78
2018-03-22T10:59:43.681Z,5.7
2018-03-22T11:00:43.663Z,5.75
2018-03-22T11:01:43.639Z,5.83
2018-03-22T11:02:43.353Z,5.77
2018-03-22T11:03:43.335Z,5.78
2018-03-22T11:04:43.848Z,5.74
2018-03-22T11:05:43.838Z,5.77
2018-03-22T11:06:43.538Z,5.81
2018-03-22T11:07:43.517Z,5.81
2018-03-22T11:08:43.764Z,5.81
2018-03-22T11:09:43.471Z,5.85
2018-03-22T11:10:43.730Z,5.82
2018-03-22T11:11:43.444Z,5.89
2018-03-22T11:12:43.678Z,5.96
2018-03-22T11:13:43.394Z,5.95
2018-03-22T11:14:43.110Z,5.91
2018-03-22T11:15:43.621Z,5.92
2018-03-22T11:16:43.591Z,6.01
2018-03-22T11:17:43.578Z,5.98
2018-03-22T11:18:43.028Z,5.98
2018-03-22T11:19:43.567Z,6.06
2018-03-22T11:20:43.254Z,6.04
2018-03-22T11:21:43.500Z,6.11
2018-03-22T11:22:43.213Z,6.11
2018-03-22T11:23:43.198Z,6.09
2018-03-22T11:24:42.905Z,6.09
2018-03-22T11:25:42.889Z,6.09
2018-03-22T11:26:43.151Z,6.16
2018-03-22T11:27:43.379Z,6.22
2018-03-22T11:28:43.101Z,6.21
2018-03-22T11:29:43.350Z,6.35
2018-03-22T11:30:43.052Z,6.38
2018-03-22T11:31:42.766Z,6.36
2018-03-22T11:32:43.019Z,6.32
2018-03-22T11:33:42.723Z,6.36
2018-03-22T11:34:43.241Z,6.35
2018-03-22T11:35:43.062Z,6.32
2018-03-22T11:36:43.272Z,6.4
2018-03-22T11:37:43.261Z,6.4
2018-03-22T11:38:43.287Z,6.38
2018-03-22T11:39:42.894Z,6.36
2018-03-22T11:40:42.600Z,6.3
2018-03-22T11:41:43.132Z,6.44
2018-03-22T11:42:42.961Z,6.48
2018-03-22T11:43:42.954Z,6.54
2018-03-22T11:44:42.508Z,6.56
2018-03-22T11:45:42.756Z,6.65
2018-03-22T11:46:42.739Z,6.81
2018-03-22T11:47:42.789Z,6.91
2018-03-22T11:48:42.733Z,6.95
2018-03-22T11:49:42.875Z,6.97
2018-03-22T11:50:42.399Z,7.13
2018-03-22T11:51:42.680Z,7.2
2018-03-22T11:52:42.888Z,7.29
2018-03-22T11:53:43.038Z,7.4
2018-03-22T11:54:42.579Z,7.41
2018-03-22T11:55:42.569Z,7.24
2018-03-22T11:56:42.755Z,7.32
2018-03-22T11:57:42.260Z,7.37
2018-03-22T11:58:42.511Z,7.44
2018-03-22T11:59:42.243Z,7.32
2018-03-22T12:00:42.209Z,7.32
2018-03-22T12:01:42.191Z,7.42
2018-03-22T12:02:42.769Z,7.42
2018-03-22T12:03:42.465Z,7.44
2018-03-22T12:04:42.746Z,7.35
2018-03-22T12:05:42.120Z,7.35
2018-03-22T12:06:42.098Z,7.34
2018-03-22T12:07:42.617Z,7.29
2018-03-22T12:08:42.589Z,7.37
2018-03-22T12:09:42.315Z,7.35
2018-03-22T12:10:42.558Z,7.42
2018-03-22T12:11:42.274Z,7.32
2018-03-22T12:12:41.982Z,7.32
2018-03-22T12:13:42.244Z,7.32
2018-03-22T12:14:42.224Z,7.26
2018-03-22T12:15:42.205Z,7.27
2018-03-22T12:16:42.452Z,7.26
2018-03-22T12:17:42.166Z,7.26
2018-03-22T12:18:41.882Z,7.23
2018-03-22T12:19:42.127Z,7.26
2018-03-22T12:20:42.101Z,7.32
2018-03-22T12:21:42.142Z,7.15
2018-03-22T12:22:42.069Z,7.23
2018-03-22T12:23:41.792Z,7.23
2018-03-22T12:24:42.040Z,7.27
2018-03-22T12:25:42.044Z,7.17
2018-03-22T12:26:42.258Z,7.17
2018-03-22T12:27:42.300Z,7.19
2018-03-22T12:28:42.220Z,7.19
2018-03-22T12:29:42.261Z,7.16
2018-03-22T12:30:41.661Z,7.19
2018-03-22T12:31:41.647Z,7.15
2018-03-22T12:32:41.890Z,7.15
2018-03-22T12:33:41.866Z,7.13
2018-03-22T12:34:42.207Z,7.09
2018-03-22T12:35:41.616Z,7.08
2018-03-22T12:36:42.124Z,7.15
2018-03-22T12:37:42.251Z,7.2
2018-03-22T12:38:41.539Z,7.15
2018-03-22T12:39:41.747Z,7.22
2018-03-22T12:40:41.727Z,7.16
2018-03-22T12:41:41.992Z,7.13
2018-03-22T12:42:41.978Z,7.19
2018-03-22T12:43:42.388Z,7.16
2018-03-22T12:44:41.383Z,7.15
2018-03-22T12:45:41.635Z,7.12
2018-03-22T12:46:41.759Z,7.2
2018-03-22T12:47:41.609Z,7.15
2018-03-22T12:48:41.623Z,7.16
2018-03-22T12:49:41.824Z,7.15
2018-03-22T12:50:41.537Z,7.16
2018-03-22T12:51:41.860Z,7.15
2018-03-22T12:52:41.779Z,7.13
2018-03-22T12:53:41.253Z,7.19
2018-03-22T12:54:41.748Z,7.15
2018-03-22T12:55:41.778Z,7.23
2018-03-22T12:56:41.444Z,7.12
2018-03-22T12:57:41.143Z,7.16
2018-03-22T12:58:41.789Z,7.15
2018-03-22T12:59:41.641Z,7.16
2018-03-22T13:00:41.344Z,7.15
2018-03-22T13:01:41.442Z,7.2
2018-03-22T13:02:41.039Z,7.34
2018-03-22T13:03:41.288Z,7.35
2018-03-22T13:04:41.273Z,7.44
2018-03-22T13:05:41.524Z,7.55
2018-03-22T13:06:41.381Z,7.62
2018-03-22T13:07:40.976Z,7.78
2018-03-22T13:08:41.489Z,7.71
2018-03-22T13:09:41.175Z,7.72
2018-03-22T13:10:41.443Z,7.74
2018-03-22T13:11:41.471Z,7.82
2018-03-22T13:12:41.165Z,7.79
2018-03-22T13:13:41.154Z,7.85
2018-03-22T13:14:41.377Z,7.74
2018-03-22T13:15:41.068Z,7.79
2018-03-22T13:16:40.790Z,7.87
2018-03-22T13:17:41.035Z,7.84
2018-03-22T13:18:41.044Z,7.9
2018-03-22T13:19:41.442Z,8.02
2018-03-22T13:20:40.976Z,7.97
2018-03-22T13:21:41.356Z,8.02